Terminal Aerodrome Forecast
Issued by NWS

Home | Current Version | Previous Version | Text Only | Print | Product List | Glossary On
Versions: 1 2 3 4 5 6 7 8 9 10 11 12 13
000
FTUS44 KEPZ 241138
TAFDMN
TAF
KDMN 241138Z 2412/2512 25015G25KT P6SM SCT060 SCT200
     FM241500 26015G23KT P6SM VCSH SCT050 BKN100
     FM241900 27013KT P6SM SCT080 BKN200=

USA.gov is the U.S. government's official web portal to all federal, state and local government web resources and services.